Time;durP1;ratioP1;P1;durP2;ratioP2;P2;SDS_P1;SDS_P2;PMS_P1;PMS_P2;Temp;Humidity;BMP_temperature;BMP_pressure;BME280_temperature;BME280_humidity;BME280_pressure;Samples;Min_cycle;Max_cycle;Signal;HPM_P1;HPM_P2
2022/04/04 00:00:38;;;;;;;;;;;;;;;;;;5012837;28;1942;-68
2022/04/04 00:03:04;;;;;;;;;;;;;;;;;;5014663;28;1504;-68
2022/04/04 00:05:30;;;;;;;;;;;;;;;;;;5013379;28;1056;-69
2022/04/04 00:07:58;;;;;;;;;;;;;;;;;;5012970;28;1095;-68
2022/04/04 00:10:24;;;;;;;;;;;;;;;;;;4995228;28;1420;-68
2022/04/04 00:12:50;;;;;;;;;;;;;;;;;;5012877;28;1394;-67
2022/04/04 00:15:17;;;;;;;;;;;;;;;;;;4995289;28;1695;-68
2022/04/04 00:17:44;;;;;;;;;;;;;;;;;;5012945;28;862;-68
2022/04/04 00:20:11;;;;;;;;;;;;;;;;;;5012560;28;1910;-68
2022/04/04 00:22:38;;;;;;;;;;;;;;;;;;4995109;28;1357;-67
2022/04/04 00:25:05;;;;;;;;;;;;;;;;;;4995090;28;1157;-68
2022/04/04 00:27:32;;;;;;;;;;;;;;;;;;5012891;28;1116;-68
2022/04/04 00:29:58;;;;;;;;;;;;;;;;;;5012427;28;804;-68
2022/04/04 00:32:24;;;;;;;;;;;;;;;;;;5012593;28;779;-68
2022/04/04 00:34:50;;;;;;;;;;;;;;;;;;5012258;28;1403;-68
2022/04/04 00:37:17;;;;;;;;;;;;;;;;;;4994712;28;1405;-69
2022/04/04 00:39:43;;;;;;;;;;;;;;;;;;5012507;28;1931;-69
2022/04/04 00:42:11;;;;;;;;;;;;;;;;;;5012192;28;847;-68
2022/04/04 00:44:38;;;;;;;;;;;;;;;;;;4994334;28;1416;-68
2022/04/04 00:47:04;;;;;;;;;;;;;;;;;;5011710;28;854;-68
2022/04/04 00:49:30;;;;;;;;;;;;;;;;;;5012228;28;1005;-68
2022/04/04 00:51:57;;;;;;;;;;;;;;;;;;5011976;28;1143;-68
2022/04/04 00:54:23;;;;;;;;;;;;;;;;;;5012112;28;1330;-68
2022/04/04 00:56:49;;;;;;;;;;;;;;;;;;5011823;28;779;-68
2022/04/04 00:59:18;;;;;;;;;;;;;;;;;;5012524;28;692;-69
2022/04/04 01:01:44;;;;;;;;;;;;;;;;;;5011871;28;1919;-68
2022/04/04 01:04:11;;;;;;;;;;;;;;;;;;5011673;28;1395;-68
2022/04/04 01:06:38;;;;;;;;;;;;;;;;;;4994045;28;1180;-68
2022/04/04 01:09:04;;;;;;;;;;;;;;;;;;5011827;28;1056;-67
2022/04/04 01:11:30;;;;;;;;;;;;;;;;;;5011297;28;1111;-68
2022/04/04 01:13:57;;;;;;;;;;;;;;;;;;5011193;28;1267;-68
2022/04/04 01:16:24;;;;;;;;;;;;;;;;;;4993998;28;1057;-68
2022/04/04 01:18:50;;;;;;;;;;;;;;;;;;5011726;28;756;-68
2022/04/04 01:21:19;;;;;;;;;;;;;;;;;;5011392;28;1983;-68
2022/04/04 01:23:45;;;;;;;;;;;;;;;;;;5011408;28;1275;-68
2022/04/04 01:26:13;;;;;;;;;;;;;;;;;;5011182;28;1080;-67
2022/04/04 01:28:39;;;;;;;;;;;;;;;;;;5011395;28;1123;-68
2022/04/04 01:31:06;;;;;;;;;;;;;;;;;;5011892;28;827;-68
2022/04/04 01:33:32;;;;;;;;;;;;;;;;;;5011175;28;1302;-68
2022/04/04 01:35:58;;;;;;;;;;;;;;;;;;4993573;28;1165;-68
2022/04/04 01:38:25;;;;;;;;;;;;;;;;;;5011586;28;834;-68
2022/04/04 01:40:51;;;;;;;;;;;;;;;;;;5011256;28;1919;-67
2022/04/04 01:43:19;;;;;;;;;;;;;;;;;;5012726;28;1416;-68
2022/04/04 01:48:29;;;;;;;;;;;;;;;;;;5011401;28;989;-68
2022/04/04 01:50:55;;;;;;;;;;;;;;;;;;5010729;28;1914;-68
2022/04/04 01:53:27;;;;;;;;;;;;;;;;;;5011020;28;1326;-68
2022/04/04 01:55:54;;;;;;;;;;;;;;;;;;5011255;28;878;-68
2022/04/04 01:58:23;;;;;;;;;;;;;;;;;;5010985;28;965;-68
2022/04/04 02:00:49;;;;;;;;;;;;;;;;;;5011021;28;1977;-68
2022/04/04 02:03:15;;;;;;;;;;;;;;;;;;5010921;28;1298;-68
2022/04/04 02:05:41;;;;;;;;;;;;;;;;;;5010929;28;1069;-68
2022/04/04 02:08:08;;;;;;;;;;;;;;;;;;4995093;28;1492;-68
2022/04/04 02:10:35;;;;;;;;;;;;;;;;;;5010842;28;1079;-68
2022/04/04 02:13:01;;;;;;;;;;;;;;;;;;5010854;28;1381;-68
2022/04/04 02:15:28;;;;;;;;;;;;;;;;;;5010802;28;886;-68
2022/04/04 02:17:56;;;;;;;;;;;;;;;;;;5011092;28;846;-68
2022/04/04 02:20:22;;;;;;;;;;;;;;;;;;5010976;28;1915;-69
2022/04/04 02:22:49;;;;;;;;;;;;;;;;;;5010104;28;1305;-68
2022/04/04 02:25:15;;;;;;;;;;;;;;;;;;5010685;28;1060;-68
2022/04/04 02:27:41;;;;;;;;;;;;;;;;;;5014483;28;1028;-67
2022/04/04 02:30:08;;;;;;;;;;;;;;;;;;5015114;28;849;-67
2022/04/04 02:32:36;;;;;;;;;;;;;;;;;;5017424;28;842;-68
2022/04/04 02:35:04;;;;;;;;;;;;;;;;;;5014588;28;752;-68
2022/04/04 02:37:31;;;;;;;;;;;;;;;;;;5014486;28;945;-68
2022/04/04 02:39:57;;;;;;;;;;;;;;;;;;5014447;28;771;-68
2022/04/04 02:42:23;;;;;;;;;;;;;;;;;;5014426;28;1981;-69
2022/04/04 02:44:50;;;;;;;;;;;;;;;;;;5014545;28;1441;-68
2022/04/04 02:47:16;;;;;;;;;;;;;;;;;;5014321;28;973;-68
2022/04/04 02:49:43;;;;;;;;;;;;;;;;;;5014551;28;878;-68
2022/04/04 02:52:09;;;;;;;;;;;;;;;;;;5014213;28;1076;-68
2022/04/04 02:54:36;;;;;;;;;;;;;;;;;;5014323;28;1396;-69
2022/04/04 02:57:01;;;;;;;;;;;;;;;;;;5015647;28;2065;-68
2022/04/04 02:59:27;;;;;;;;;;;;;;;;;;5040376;28;1719;-67
2022/04/04 03:01:53;;;;;;;;;;;;;;;;;;5033845;28;1985;-68
2022/04/04 03:04:20;;;;;;;;;;;;;;;;;;5043490;28;1423;-68
2022/04/04 03:06:47;;;;;;;;;;;;;;;;;;5045173;28;1195;-68
2022/04/04 03:09:13;;;;;;;;;;;;;;;;;;5053895;28;1208;-67
2022/04/04 03:11:39;;;;;;;;;;;;;;;;;;5053381;28;964;-67
2022/04/04 03:14:06;;;;;;;;;;;;;;;;;;5053809;28;1379;-68
2022/04/04 03:16:32;;;;;;;;;;;;;;;;;;5035488;28;2089;-68
2022/04/04 03:18:59;;;;;;;;;;;;;;;;;;5053488;28;1023;-68
2022/04/04 03:21:25;;;;;;;;;;;;;;;;;;5035730;28;1946;-68
2022/04/04 03:23:53;;;;;;;;;;;;;;;;;;5053423;28;1353;-68
2022/04/04 03:26:19;;;;;;;;;;;;;;;;;;5053200;28;1075;-68
2022/04/04 03:28:46;;;;;;;;;;;;;;;;;;5060602;22;2022;-68
2022/04/04 03:31:13;;;;;;;;;;;;;;;;;;5054462;28;1184;-68
2022/04/04 03:33:39;;;;;;;;;;;;;;;;;;5072944;28;1119;-67
2022/04/04 03:36:06;;;;;;;;;;;;;;;;;;5073134;28;1130;-68
2022/04/04 03:38:32;;;;;;;;;;;;;;;;;;5054849;28;1380;-68
2022/04/04 03:40:59;;;;;;;;;;;;;;;;;;5073258;28;1910;-68
2022/04/04 03:43:26;;;;;;;;;;;;;;;;;;5072671;28;1060;-68
2022/04/04 03:45:52;;;;;;;;;;;;;;;;;;5073123;28;913;-69
2022/04/04 03:48:18;;;;;;;;;;;;;;;;;;5072722;28;1433;-67
2022/04/04 03:50:45;;;;;;;;;;;;;;;;;;5072525;28;1072;-68
2022/04/04 03:53:12;;;;;;;;;;;;;;;;;;5072795;28;1067;-68
2022/04/04 03:55:39;;;;;;;;;;;;;;;;;;5054697;28;1619;-68
2022/04/04 03:58:08;;;;;;;;;;;;;;;;;;5072811;28;1407;-68
2022/04/04 04:00:34;;;;;;;;;;;;;;;;;;5054673;28;1056;-68
2022/04/04 04:03:00;;;;;;;;;;;;;;;;;;5072630;28;1918;-68
2022/04/04 04:05:27;;;;;;;;;;;;;;;;;;5072893;28;790;-69
2022/04/04 04:07:53;;;;;;;;;;;;;;;;;;5072336;28;1333;-66
2022/04/04 04:10:19;;;;;;;;;;;;;;;;;;5072712;28;1076;-66
2022/04/04 04:12:46;;;;;;;;;;;;;;;;;;5072350;28;1267;-67
2022/04/04 04:15:14;;;;;;;;;;;;;;;;;;5072592;28;1123;-68
2022/04/04 04:17:40;;;;;;;;;;;;;;;;;;5034442;28;1533;-69
2022/04/04 04:20:23;;;;;;;;;;;;;;;;;;5032410;28;851;-69
2022/04/04 04:22:52;;;;;;;;;;;;;;;;;;5032294;28;1977;-68
2022/04/04 04:25:18;;;;;;;;;;;;;;;;;;5031331;28;1071;-68
2022/04/04 04:27:45;;;;;;;;;;;;;;;;;;5039257;28;1465;-67
2022/04/04 04:30:13;;;;;;;;;;;;;;;;;;5052253;28;1416;-68
2022/04/04 04:32:41;;;;;;;;;;;;;;;;;;5052160;28;818;-69
2022/04/04 04:35:08;;;;;;;;;;;;;;;;;;5044121;28;1466;-67
2022/04/04 04:37:34;;;;;;;;;;;;;;;;;;5051369;28;1539;-68
2022/04/04 04:40:01;;;;;;;;;;;;;;;;;;5051718;28;1582;-66
2022/04/04 04:42:27;;;;;;;;;;;;;;;;;;5050629;28;1981;-67
2022/04/04 04:44:53;;;;;;;;;;;;;;;;;;5051381;28;2106;-68
2022/04/04 04:47:19;;;;;;;;;;;;;;;;;;5034756;28;1452;-69
2022/04/04 04:49:48;;;;;;;;;;;;;;;;;;5029197;28;807;-68
2022/04/04 04:52:14;;;;;;;;;;;;;;;;;;5030354;28;1626;-69
2022/04/04 04:54:42;;;;;;;;;;;;;;;;;;5049369;28;1376;-68
2022/04/04 04:57:08;;;;;;;;;;;;;;;;;;5048942;28;1594;-69
2022/04/04 04:59:35;;;;;;;;;;;;;;;;;;5049708;28;1001;-68
2022/04/04 05:02:01;;;;;;;;;;;;;;;;;;5031386;28;1974;-68
2022/04/04 05:04:27;;;;;;;;;;;;;;;;;;5049237;28;1543;-68
2022/04/04 05:06:54;;;;;;;;;;;;;;;;;;5048586;28;1606;-67
2022/04/04 05:09:21;;;;;;;;;;;;;;;;;;5048981;28;1590;-69
2022/04/04 05:11:47;;;;;;;;;;;;;;;;;;5049148;28;1060;-69
2022/04/04 05:14:15;;;;;;;;;;;;;;;;;;5030796;28;1558;-69
2022/04/04 05:16:42;;;;;;;;;;;;;;;;;;5030563;28;1610;-68
2022/04/04 05:19:08;;;;;;;;;;;;;;;;;;5048658;28;1578;-69
2022/04/04 05:21:35;;;;;;;;;;;;;;;;;;5049108;28;1965;-69
2022/04/04 05:24:02;;;;;;;;;;;;;;;;;;5049253;28;977;-69
2022/04/04 05:26:29;;;;;;;;;;;;;;;;;;5048012;28;1527;-68
2022/04/04 05:28:57;;;;;;;;;;;;;;;;;;5048862;28;1356;-67
2022/04/04 05:31:23;;;;;;;;;;;;;;;;;;5048241;28;1579;-67
2022/04/04 05:33:50;;;;;;;;;;;;;;;;;;5048235;28;1325;-69
2022/04/04 05:36:16;;;;;;;;;;;;;;;;;;5047706;28;1458;-68
2022/04/04 05:38:42;;;;;;;;;;;;;;;;;;5049554;28;1313;-68
2022/04/04 05:41:10;;;;;;;;;;;;;;;;;;5050679;28;1653;-68
2022/04/04 05:43:36;;;;;;;;;;;;;;;;;;5050667;28;882;-66
2022/04/04 05:46:02;;;;;;;;;;;;;;;;;;5050612;28;1650;-67
2022/04/04 05:48:30;;;;;;;;;;;;;;;;;;5049712;28;1407;-67
2022/04/04 05:50:56;;;;;;;;;;;;;;;;;;5045479;28;1498;-70
2022/04/04 05:53:23;;;;;;;;;;;;;;;;;;5045064;28;1244;-68
2022/04/04 05:55:49;;;;;;;;;;;;;;;;;;5049912;28;1582;-69
2022/04/04 05:58:16;;;;;;;;;;;;;;;;;;5044965;28;1340;-69
2022/04/04 06:00:42;;;;;;;;;;;;;;;;;;5042795;28;1630;-67
2022/04/04 06:03:09;;;;;;;;;;;;;;;;;;5050165;28;1921;-67
2022/04/04 06:05:35;;;;;;;;;;;;;;;;;;5049629;28;1657;-68
2022/04/04 06:08:02;;;;;;;;;;;;;;;;;;5031972;28;1314;-68
2022/04/04 06:10:28;;;;;;;;;;;;;;;;;;5049603;28;1364;-68
2022/04/04 06:12:54;;;;;;;;;;;;;;;;;;5050370;28;808;-69
2022/04/04 06:15:21;;;;;;;;;;;;;;;;;;5049775;28;1606;-68
2022/04/04 06:17:48;;;;;;;;;;;;;;;;;;5032448;28;1254;-68
2022/04/04 06:20:14;;;;;;;;;;;;;;;;;;5045865;28;1587;-68
2022/04/04 06:22:41;;;;;;;;;;;;;;;;;;5049767;28;1968;-67
2022/04/04 06:25:08;;;;;;;;;;;;;;;;;;5029920;28;1598;-68
2022/04/04 06:27:34;;;;;;;;;;;;;;;;;;5049850;28;1450;-68
2022/04/04 06:30:00;;;;;;;;;;;;;;;;;;5050180;28;1497;-68
2022/04/04 06:32:28;;;;;;;;;;;;;;;;;;5033796;28;1726;-68
2022/04/04 06:34:54;;;;;;;;;;;;;;;;;;5030244;28;1048;-68
2022/04/04 06:37:20;;;;;;;;;;;;;;;;;;5043676;28;1602;-68
2022/04/04 06:39:47;;;;;;;;;;;;;;;;;;5032131;28;1605;-69
2022/04/04 06:42:14;;;;;;;;;;;;;;;;;;5049439;28;1958;-69
2022/04/04 06:44:42;;;;;;;;;;;;;;;;;;5049829;28;1658;-67
2022/04/04 06:47:08;;;;;;;;;;;;;;;;;;5031141;28;1519;-68
2022/04/04 06:49:36;;;;;;;;;;;;;;;;;;5032313;28;1101;-66
2022/04/04 06:52:02;;;;;;;;;;;;;;;;;;5048239;28;1653;-68
2022/04/04 06:54:28;;;;;;;;;;;;;;;;;;5049563;28;1182;-69
2022/04/04 06:56:55;;;;;;;;;;;;;;;;;;5048750;28;1305;-69
2022/04/04 06:59:21;;;;;;;;;;;;;;;;;;5049198;28;1463;-67
2022/04/04 07:01:49;;;;;;;;;;;;;;;;;;5049191;28;1976;-68
2022/04/04 07:04:16;;;;;;;;;;;;;;;;;;5049230;28;1416;-68
2022/04/04 07:06:43;;;;;;;;;;;;;;;;;;5048676;28;1139;-68
2022/04/04 07:09:09;;;;;;;;;;;;;;;;;;5049389;28;1543;-69
2022/04/04 07:11:36;;;;;;;;;;;;;;;;;;5049819;28;953;-66
2022/04/04 07:14:02;;;;;;;;;;;;;;;;;;5053216;28;1617;-67
2022/04/04 07:16:29;;;;;;;;;;;;;;;;;;5053050;28;909;-69
2022/04/04 07:18:55;;;;;;;;;;;;;;;;;;5053046;28;1594;-69
2022/04/04 07:21:22;;;;;;;;;;;;;;;;;;5052847;28;1590;-68
2022/04/04 07:23:50;;;;;;;;;;;;;;;;;;5053120;28;1921;-66
2022/04/04 07:26:19;;;;;;;;;;;;;;;;;;5052280;28;1582;-67
2022/04/04 07:28:46;;;;;;;;;;;;;;;;;;5052490;28;1488;-65
2022/04/04 07:31:12;;;;;;;;;;;;;;;;;;5051251;28;1641;-67
2022/04/04 07:33:39;;;;;;;;;;;;;;;;;;5045527;28;1423;-68
2022/04/04 07:36:05;;;;;;;;;;;;;;;;;;5049823;28;1532;-69
2022/04/04 07:38:31;;;;;;;;;;;;;;;;;;5052778;28;1409;-69
2022/04/04 07:40:59;;;;;;;;;;;;;;;;;;5052533;28;925;-68
2022/04/04 07:43:25;;;;;;;;;;;;;;;;;;5052512;28;1992;-68
2022/04/04 07:45:51;;;;;;;;;;;;;;;;;;5053485;28;798;-69
2022/04/04 07:48:17;;;;;;;;;;;;;;;;;;5039646;28;1606;-69
2022/04/04 07:50:45;;;;;;;;;;;;;;;;;;5052793;28;984;-68
2022/04/04 07:53:11;;;;;;;;;;;;;;;;;;5052348;28;1598;-68
2022/04/04 07:55:37;;;;;;;;;;;;;;;;;;5052818;28;1048;-67
2022/04/04 07:58:05;;;;;;;;;;;;;;;;;;5033857;28;1566;-69
2022/04/04 08:00:31;;;;;;;;;;;;;;;;;;5052308;28;1555;-69
2022/04/04 08:02:58;;;;;;;;;;;;;;;;;;5052000;28;1922;-68
2022/04/04 08:05:26;;;;;;;;;;;;;;;;;;5052010;28;1577;-69
2022/04/04 08:07:53;;;;;;;;;;;;;;;;;;5051361;28;1598;-68
2022/04/04 08:10:19;;;;;;;;;;;;;;;;;;5035615;28;1170;-67
2022/04/04 08:12:45;;;;;;;;;;;;;;;;;;5033663;28;1622;-68
2022/04/04 08:15:13;;;;;;;;;;;;;;;;;;5052082;28;946;-68
2022/04/04 08:17:40;;;;;;;;;;;;;;;;;;5051421;28;1590;-69
2022/04/04 08:20:08;;;;;;;;;;;;;;;;;;5051797;28;1575;-68
2022/04/04 08:22:37;;;;;;;;;;;;;;;;;;5051566;28;1969;-68
2022/04/04 08:25:04;;;;;;;;;;;;;;;;;;5050468;28;1629;-68
2022/04/04 08:27:31;;;;;;;;;;;;;;;;;;5051969;28;1337;-68
2022/04/04 08:29:57;;;;;;;;;;;;;;;;;;5041420;28;1634;-67
2022/04/04 08:32:25;;;;;;;;;;;;;;;;;;5050838;28;1455;-68
2022/04/04 08:34:51;;;;;;;;;;;;;;;;;;5029353;28;1602;-68
2022/04/04 08:37:17;;;;;;;;;;;;;;;;;;5040828;28;1310;-66
2022/04/04 08:39:44;;;;;;;;;;;;;;;;;;5051062;28;1561;-68
2022/04/04 08:42:11;;;;;;;;;;;;;;;;;;5051097;28;1910;-67
2022/04/04 08:44:39;;;;;;;;;;;;;;;;;;5051916;28;1598;-68
2022/04/04 08:47:05;;;;;;;;;;;;;;;;;;5051319;28;1495;-68
2022/04/04 08:49:33;;;;;;;;;;;;;;;;;;5051205;28;1348;-68
2022/04/04 08:51:59;;;;;;;;;;;;;;;;;;5051168;28;1650;-68
2022/04/04 08:54:25;;;;;;;;;;;;;;;;;;5051045;28;1123;-68
2022/04/04 08:56:52;;;;;;;;;;;;;;;;;;5050083;28;1594;-69
2022/04/04 08:59:18;;;;;;;;;;;;;;;;;;5046108;28;1669;-69
2022/04/04 09:01:44;;;;;;;;;;;;;;;;;;5050393;28;1704;-70
2022/04/04 09:04:17;;;;;;;;;;;;;;;;;;5050693;28;2242;-69
2022/04/04 09:06:48;;;;;;;;;;;;;;;;;;5060987;28;1594;-67
2022/04/04 09:09:17;;;;;;;;;;;;;;;;;;5051681;28;1641;-66
2022/04/04 09:11:44;;;;;;;;;;;;;;;;;;5050686;28;1623;-68
2022/04/04 09:14:10;;;;;;;;;;;;;;;;;;5050774;28;1877;-68
2022/04/04 09:16:37;;;;;;;;;;;;;;;;;;5042294;28;1637;-68
2022/04/04 09:19:04;;;;;;;;;;;;;;;;;;5048256;28;1404;-68
2022/04/04 09:21:34;;;;;;;;;;;;;;;;;;5051190;28;1052;-67
2022/04/04 09:24:07;;;;;;;;;;;;;;;;;;5050485;28;1974;-67
2022/04/04 09:26:34;;;;;;;;;;;;;;;;;;5049795;28;1411;-67
2022/04/04 09:29:01;;;;;;;;;;;;;;;;;;5050298;28;1598;-68
2022/04/04 09:31:27;;;;;;;;;;;;;;;;;;5060479;22;4105;-68
2022/04/04 09:33:57;;;;;;;;;;;;;;;;;;5048465;28;1072;-68
2022/04/04 09:36:23;;;;;;;;;;;;;;;;;;5048715;28;1357;-67
2022/04/04 09:38:56;;;;;;;;;;;;;;;;;;5048188;28;1981;-68
2022/04/04 09:41:25;;;;;;;;;;;;;;;;;;5040689;28;1928;-67
2022/04/04 09:43:51;;;;;;;;;;;;;;;;;;5029710;28;1914;-66
2022/04/04 09:46:17;;;;;;;;;;;;;;;;;;5029483;28;1559;-67
2022/04/04 09:48:58;;;;;;;;;;;;;;;;;;5033897;28;913;-66
2022/04/04 09:51:34;;;;;;;;;;;;;;;;;;5046077;28;1555;-67
2022/04/04 09:54:03;;;;;;;;;;;;;;;;;;5028861;28;984;-68
2022/04/04 09:56:30;;;;;;;;;;;;;;;;;;5034945;28;1412;-68
2022/04/04 09:58:57;;;;;;;;;;;;;;;;;;5042850;28;1069;-67
2022/04/04 10:01:23;;;;;;;;;;;;;;;;;;5047291;28;1779;-67
2022/04/04 10:03:51;;;;;;;;;;;;;;;;;;5029692;28;1977;-68
2022/04/04 10:06:17;;;;;;;;;;;;;;;;;;5029269;28;1666;-67
2022/04/04 10:08:43;;;;;;;;;;;;;;;;;;5029844;28;1540;-69
2022/04/04 10:11:10;;;;;;;;;;;;;;;;;;5029384;28;1326;-68
2022/04/04 10:13:37;;;;;;;;;;;;;;;;;;5029608;28;1567;-67
2022/04/04 10:16:04;;;;;;;;;;;;;;;;;;5036538;28;1345;-67
2022/04/04 10:18:30;;;;;;;;;;;;;;;;;;5033162;28;1567;-67
2022/04/04 10:20:57;;;;;;;;;;;;;;;;;;5028684;28;1623;-67
2022/04/04 10:23:24;;;;;;;;;;;;;;;;;;5027855;28;1969;-67
2022/04/04 10:25:51;;;;;;;;;;;;;;;;;;5039910;28;1691;-67
2022/04/04 10:28:25;;;;;;;;;;;;;;;;;;5029167;28;1527;-68
2022/04/04 10:30:53;;;;;;;;;;;;;;;;;;5033332;28;1324;-68
2022/04/04 10:33:22;;;;;;;;;;;;;;;;;;5047998;28;1381;-67
2022/04/04 10:35:58;;;;;;;;;;;;;;;;;;5013990;28;1300;-68
2022/04/04 10:38:28;;;;;;;;;;;;;;;;;;5010775;28;1580;-67
2022/04/04 10:40:54;;;;;;;;;;;;;;;;;;5023254;28;1576;-68
2022/04/04 10:43:21;;;;;;;;;;;;;;;;;;5011897;28;1918;-67
2022/04/04 10:45:50;;;;;;;;;;;;;;;;;;5033471;28;1063;-66
2022/04/04 10:48:19;;;;;;;;;;;;;;;;;;5032031;28;1619;-68
2022/04/04 10:50:45;;;;;;;;;;;;;;;;;;5034323;28;1428;-68
2022/04/04 10:53:11;;;;;;;;;;;;;;;;;;5046225;28;1365;-68
2022/04/04 10:55:52;;;;;;;;;;;;;;;;;;5041779;28;1729;-68
2022/04/04 10:58:23;;;;;;;;;;;;;;;;;;5031832;28;1592;-68
2022/04/04 11:01:04;;;;;;;;;;;;;;;;;;5036282;28;1561;-68
2022/04/04 11:03:32;;;;;;;;;;;;;;;;;;5043112;28;1973;-67
2022/04/04 11:08:44;;;;;;;;;;;;;;;;;;5033896;28;1436;-68
2022/04/04 11:11:15;;;;;;;;;;;;;;;;;;5047345;28;1460;-67
2022/04/04 11:13:41;;;;;;;;;;;;;;;;;;5041394;28;1595;-67
2022/04/04 11:16:08;;;;;;;;;;;;;;;;;;5051282;28;1438;-65
2022/04/04 11:18:49;;;;;;;;;;;;;;;;;;5038032;28;1622;-67
2022/04/04 11:21:22;;;;;;;;;;;;;;;;;;5052736;28;2121;-66
2022/04/04 11:23:48;;;;;;;;;;;;;;;;;;5034627;28;1918;-66
2022/04/04 11:26:17;;;;;;;;;;;;;;;;;;5045799;28;1341;-65
2022/04/04 11:28:43;;;;;;;;;;;;;;;;;;5028731;28;1787;-66
2022/04/04 11:31:10;;;;;;;;;;;;;;;;;;5041697;28;1604;-66
2022/04/04 11:33:44;;;;;;;;;;;;;;;;;;5052810;28;1118;-66
2022/04/04 11:36:15;;;;;;;;;;;;;;;;;;5040795;28;1583;-66
2022/04/04 11:38:42;;;;;;;;;;;;;;;;;;5051800;28;2031;-66
2022/04/04 11:41:11;;;;;;;;;;;;;;;;;;5039611;28;1453;-66
2022/04/04 11:43:40;;;;;;;;;;;;;;;;;;5018823;28;1890;-67
2022/04/04 11:46:14;;;;;;;;;;;;;;;;;;5037873;28;1064;-66
2022/04/04 11:48:48;;;;;;;;;;;;;;;;;;5048648;28;1638;-66
2022/04/04 11:51:14;;;;;;;;;;;;;;;;;;5043036;28;1586;-66
2022/04/04 11:53:40;;;;;;;;;;;;;;;;;;5031821;28;1453;-67
2022/04/04 11:56:13;;;;;;;;;;;;;;;;;;5031964;28;1707;-65
2022/04/04 11:58:47;;;;;;;;;;;;;;;;;;5030961;28;1635;-65
2022/04/04 12:01:13;;;;;;;;;;;;;;;;;;5023734;28;1962;-67
2022/04/04 12:03:49;;;;;;;;;;;;;;;;;;5015307;28;1979;-66
2022/04/04 12:06:15;;;;;;;;;;;;;;;;;;5032105;28;1071;-66
2022/04/04 12:08:44;;;;;;;;;;;;;;;;;;5032129;28;1580;-67
2022/04/04 12:11:12;;;;;;;;;;;;;;;;;;5013725;28;1580;-67
2022/04/04 12:13:49;;;;;;;;;;;;;;;;;;5022108;28;1357;-65
2022/04/04 12:16:16;;;;;;;;;;;;;;;;;;5026208;28;947;-64
2022/04/04 12:18:42;;;;;;;;;;;;;;;;;;5049433;28;1328;-66
2022/04/04 12:21:08;;;;;;;;;;;;;;;;;;5032045;28;1300;-67
2022/04/04 12:26:23;;;;;;;;;;;;;;;;;;5043631;28;1448;-67
2022/04/04 12:28:52;;;;;;;;;;;;;;;;;;5024424;28;1591;-67
2022/04/04 12:31:20;;;;;;;;;;;;;;;;;;5011905;28;1372;-66
2022/04/04 12:33:53;;;;;;;;;;;;;;;;;;5026304;28;1402;-67
2022/04/04 12:36:25;;;;;;;;;;;;;;;;;;5031050;28;1528;-66
2022/04/04 12:38:51;;;;;;;;;;;;;;;;;;5049293;28;1050;-66
2022/04/04 12:41:17;;;;;;;;;;;;;;;;;;5045602;28;2021;-66
2022/04/04 12:43:47;;;;;;;;;;;;;;;;;;5051280;28;1914;-66
2022/04/04 12:46:24;;;;;;;;;;;;;;;;;;5037486;28;1615;-66
2022/04/04 12:48:50;;;;;;;;;;;;;;;;;;5051131;28;1091;-66
2022/04/04 12:51:25;;;;;;;;;;;;;;;;;;5031693;28;1630;-66
2022/04/04 12:53:53;;;;;;;;;;;;;;;;;;5037937;28;1474;-65
2022/04/04 12:56:19;;;;;;;;;;;;;;;;;;5041341;28;1579;-67
2022/04/04 12:59:00;;;;;;;;;;;;;;;;;;5050993;28;942;-67
2022/04/04 13:01:28;;;;;;;;;;;;;;;;;;5039145;28;1574;-67
2022/04/04 13:03:55;;;;;;;;;;;;;;;;;;5031131;28;1981;-67
2022/04/04 13:06:22;;;;;;;;;;;;;;;;;;5030756;28;1675;-66
2022/04/04 13:08:55;;;;;;;;;;;;;;;;;;5042504;28;1357;-67
2022/04/04 13:11:22;;;;;;;;;;;;;;;;;;5045247;28;1397;-68
2022/04/04 13:13:59;;;;;;;;;;;;;;;;;;5044708;28;1622;-67
2022/04/04 13:16:30;;;;;;;;;;;;;;;;;;5031024;28;965;-67
2022/04/04 13:18:56;;;;;;;;;;;;;;;;;;5045621;28;1428;-66
2022/04/04 13:21:23;;;;;;;;;;;;;;;;;;5050706;28;1384;-67
2022/04/04 13:23:49;;;;;;;;;;;;;;;;;;5043181;28;1910;-68
2022/04/04 13:26:15;;;;;;;;;;;;;;;;;;5037569;28;1372;-67
2022/04/04 13:28:41;;;;;;;;;;;;;;;;;;5030046;28;1674;-68
2022/04/04 13:31:07;;;;;;;;;;;;;;;;;;5030248;28;1415;-68
2022/04/04 13:33:35;;;;;;;;;;;;;;;;;;5030044;28;1608;-68
2022/04/04 13:36:03;;;;;;;;;;;;;;;;;;5029800;28;1555;-68
2022/04/04 13:38:29;;;;;;;;;;;;;;;;;;5041241;28;989;-68
2022/04/04 13:40:55;;;;;;;;;;;;;;;;;;5024353;28;1476;-68
2022/04/04 13:43:21;;;;;;;;;;;;;;;;;;5027391;28;1231;-69
2022/04/04 13:45:48;;;;;;;;;;;;;;;;;;5025657;28;1915;-68
2022/04/04 13:48:15;;;;;;;;;;;;;;;;;;5049665;28;779;-67
2022/04/04 13:50:42;;;;;;;;;;;;;;;;;;5032424;28;1602;-68
2022/04/04 13:53:08;;;;;;;;;;;;;;;;;;4999831;28;1126;-69
2022/04/04 13:55:35;;;;;;;;;;;;;;;;;;5026864;28;1340;-69
2022/04/04 13:58:01;;;;;;;;;;;;;;;;;;5014720;28;1397;-69
2022/04/04 14:00:27;;;;;;;;;;;;;;;;;;5006396;28;1601;-69
2022/04/04 14:02:53;;;;;;;;;;;;;;;;;;5030142;28;1067;-67
2022/04/04 14:05:19;;;;;;;;;;;;;;;;;;5030166;28;1974;-69
2022/04/04 14:07:47;;;;;;;;;;;;;;;;;;5027131;28;1152;-69
2022/04/04 14:10:13;;;;;;;;;;;;;;;;;;5025729;28;1646;-68
2022/04/04 14:12:40;;;;;;;;;;;;;;;;;;5021105;28;1444;-69
2022/04/04 14:15:07;;;;;;;;;;;;;;;;;;5011888;28;1560;-69
2022/04/04 14:17:35;;;;;;;;;;;;;;;;;;5031641;28;2204;-69
2022/04/04 14:20:01;;;;;;;;;;;;;;;;;;5041131;28;1595;-69
2022/04/04 14:22:27;;;;;;;;;;;;;;;;;;5028913;28;1005;-69
2022/04/04 14:24:57;;;;;;;;;;;;;;;;;;5041905;28;1977;-69
2022/04/04 14:27:23;;;;;;;;;;;;;;;;;;5031881;28;1688;-69
2022/04/04 14:29:49;;;;;;;;;;;;;;;;;;5029258;28;1634;-68
2022/04/04 14:32:16;;;;;;;;;;;;;;;;;;5032552;28;1128;-68
2022/04/04 14:34:42;;;;;;;;;;;;;;;;;;5047228;28;1380;-68
2022/04/04 14:37:08;;;;;;;;;;;;;;;;;;5044427;28;899;-68
2022/04/04 14:39:34;;;;;;;;;;;;;;;;;;5048204;28;1357;-68
2022/04/04 14:42:02;;;;;;;;;;;;;;;;;;5016603;28;1731;-69
2022/04/04 14:44:28;;;;;;;;;;;;;;;;;;5049009;28;1981;-67
2022/04/04 14:46:55;;;;;;;;;;;;;;;;;;5029776;28;1072;-68
2022/04/04 14:49:21;;;;;;;;;;;;;;;;;;5046126;28;1119;-68
2022/04/04 14:51:47;;;;;;;;;;;;;;;;;;5041090;28;1602;-68
2022/04/04 14:54:13;;;;;;;;;;;;;;;;;;5029414;28;1631;-68
2022/04/04 14:56:40;;;;;;;;;;;;;;;;;;5031505;28;1599;-68
2022/04/04 14:59:07;;;;;;;;;;;;;;;;;;5049336;28;1067;-68
2022/04/04 15:01:33;;;;;;;;;;;;;;;;;;5036582;28;1642;-67
2022/04/04 15:03:59;;;;;;;;;;;;;;;;;;5045771;28;1487;-69
2022/04/04 15:06:26;;;;;;;;;;;;;;;;;;5027055;28;1975;-67
2022/04/04 15:08:52;;;;;;;;;;;;;;;;;;5028820;28;1611;-68
2022/04/04 15:11:19;;;;;;;;;;;;;;;;;;5029634;28;1318;-67
2022/04/04 15:13:48;;;;;;;;;;;;;;;;;;5047222;28;1345;-67
2022/04/04 15:16:16;;;;;;;;;;;;;;;;;;5017613;28;1655;-68
2022/04/04 15:18:42;;;;;;;;;;;;;;;;;;5038570;28;1947;-66
2022/04/04 15:21:09;;;;;;;;;;;;;;;;;;5035514;28;2210;-67
2022/04/04 15:23:35;;;;;;;;;;;;;;;;;;5043554;28;1711;-67
2022/04/04 15:26:01;;;;;;;;;;;;;;;;;;5027541;28;1918;-67
2022/04/04 15:28:27;;;;;;;;;;;;;;;;;;5032289;28;1098;-67
2022/04/04 15:30:55;;;;;;;;;;;;;;;;;;5019226;28;1453;-66
2022/04/04 15:33:22;;;;;;;;;;;;;;;;;;5028619;28;1370;-68
2022/04/04 15:35:49;;;;;;;;;;;;;;;;;;5027836;28;1184;-67
2022/04/04 15:38:15;;;;;;;;;;;;;;;;;;5023600;28;1390;-67
2022/04/04 15:40:41;;;;;;;;;;;;;;;;;;5025342;28;1417;-67
2022/04/04 15:43:10;;;;;;;;;;;;;;;;;;5025904;28;1345;-67
2022/04/04 15:45:38;;;;;;;;;;;;;;;;;;5023016;28;1977;-65
2022/04/04 15:48:05;;;;;;;;;;;;;;;;;;5025902;28;1351;-68
2022/04/04 15:50:32;;;;;;;;;;;;;;;;;;5023147;28;1493;-68
2022/04/04 15:52:58;;;;;;;;;;;;;;;;;;5024257;28;1643;-68
2022/04/04 15:55:25;;;;;;;;;;;;;;;;;;5021157;28;1315;-67
2022/04/04 15:57:51;;;;;;;;;;;;;;;;;;5023462;28;1322;-66
2022/04/04 16:00:20;;;;;;;;;;;;;;;;;;5023525;28;1561;-65
2022/04/04 16:02:46;;;;;;;;;;;;;;;;;;5042659;28;965;-67
2022/04/04 16:05:12;;;;;;;;;;;;;;;;;;5014474;28;1914;-67
2022/04/04 16:07:40;;;;;;;;;;;;;;;;;;5032774;28;770;-67
2022/04/04 16:10:06;;;;;;;;;;;;;;;;;;5029365;28;1682;-67
2022/04/04 16:12:33;;;;;;;;;;;;;;;;;;5010987;28;977;-66
2022/04/04 16:14:59;;;;;;;;;;;;;;;;;;5025455;28;1608;-67
2022/04/04 16:17:25;;;;;;;;;;;;;;;;;;5030255;28;1544;-68
2022/04/04 16:19:52;;;;;;;;;;;;;;;;;;5030443;28;1434;-68
2022/04/04 16:22:18;;;;;;;;;;;;;;;;;;5030388;28;1638;-67
2022/04/04 16:24:45;;;;;;;;;;;;;;;;;;5030559;28;1906;-68
2022/04/04 16:27:12;;;;;;;;;;;;;;;;;;5030020;28;1619;-67
2022/04/04 16:29:38;;;;;;;;;;;;;;;;;;5030006;28;1618;-66
2022/04/04 16:32:04;;;;;;;;;;;;;;;;;;5029455;28;1650;-68
2022/04/04 16:34:30;;;;;;;;;;;;;;;;;;5023588;28;1568;-67
2022/04/04 16:36:57;;;;;;;;;;;;;;;;;;5029407;28;1532;-68
2022/04/04 16:39:24;;;;;;;;;;;;;;;;;;5030422;28;882;-66
2022/04/04 16:41:51;;;;;;;;;;;;;;;;;;5030270;28;1404;-67
2022/04/04 16:44:18;;;;;;;;;;;;;;;;;;5029689;28;1689;-68
2022/04/04 16:46:44;;;;;;;;;;;;;;;;;;5029596;28;1910;-66
2022/04/04 16:49:10;;;;;;;;;;;;;;;;;;5029876;28;1555;-67
2022/04/04 16:51:37;;;;;;;;;;;;;;;;;;5029937;28;1611;-67
2022/04/04 16:54:06;;;;;;;;;;;;;;;;;;5030051;28;699;-67
2022/04/04 16:56:34;;;;;;;;;;;;;;;;;;5029360;28;1568;-68
2022/04/04 16:59:01;;;;;;;;;;;;;;;;;;5030069;28;1349;-67
2022/04/04 17:01:27;;;;;;;;;;;;;;;;;;5029600;28;1635;-68
2022/04/04 17:03:54;;;;;;;;;;;;;;;;;;5029356;28;1584;-67
2022/04/04 17:06:20;;;;;;;;;;;;;;;;;;5029453;28;1981;-68
2022/04/04 17:08:46;;;;;;;;;;;;;;;;;;5029505;28;1611;-67
2022/04/04 17:11:12;;;;;;;;;;;;;;;;;;5029448;28;1437;-68
2022/04/04 17:13:38;;;;;;;;;;;;;;;;;;5026645;28;1580;-68